Time;durP1;ratioP1;P1;durP2;ratioP2;P2;SDS_P1;SDS_P2;PMS_P1;PMS_P2;Temp;Humidity;BMP_temperature;BMP_pressure;BME280_temperature;BME280_humidity;BME280_pressure;Samples;Min_cycle;Max_cycle;Signal;HPM_P1;HPM_P2
2022/07/21 00:01:17;;;;;;;4.30;3.92;;;;;;;22.66;50.10;95306.13;5005252;28;20748;-63
2022/07/21 00:03:44;;;;;;;3.83;3.40;;;;;;;22.37;51.03;95310.13;5005827;28;20643;-63
2022/07/21 00:06:10;;;;;;;3.55;2.85;;;;;;;22.33;51.01;95309.53;5007129;28;20674;-63
2022/07/21 00:08:37;;;;;;;4.80;3.58;;;;;;;22.35;51.05;95307.66;5006641;28;20250;-64
2022/07/21 00:11:04;;;;;;;8.02;3.80;;;;;;;22.55;50.75;95313.91;5004577;28;20211;-65
2022/07/21 00:13:31;;;;;;;4.18;3.78;;;;;;;22.78;50.05;95312.16;5004669;28;20230;-65
2022/07/21 00:15:58;;;;;;;3.72;3.42;;;;;;;22.91;49.01;95315.44;5005788;28;20210;-64
2022/07/21 00:18:28;;;;;;;4.00;3.63;;;;;;;22.88;48.71;95309.69;5005760;28;20215;-63
2022/07/21 00:20:55;;;;;;;3.22;2.78;;;;;;;22.88;48.67;95314.88;5004893;28;20211;-64
2022/07/21 00:23:22;;;;;;;3.00;2.80;;;;;;;22.92;48.60;95317.09;5002463;28;20770;-64
2022/07/21 00:25:49;;;;;;;3.97;3.05;;;;;;;23.07;48.33;95317.66;5006364;28;20218;-64
2022/07/21 00:28:16;;;;;;;3.67;2.97;;;;;;;23.15;47.98;95319.66;5006608;28;20210;-64
2022/07/21 00:30:43;;;;;;;3.42;3.13;;;;;;;23.29;47.69;95322.78;5003017;28;20353;-65
2022/07/21 00:33:09;;;;;;;5.88;2.42;;;;;;;23.29;47.70;95320.19;5003740;28;20241;-64
2022/07/21 00:35:38;;;;;;;3.70;3.28;;;;;;;23.08;47.69;95312.34;5005658;28;20313;-64
2022/07/21 00:38:05;;;;;;;3.42;3.08;;;;;;;22.86;47.98;95314.16;5004731;28;20203;-64
2022/07/21 00:40:32;;;;;;;2.78;2.58;;;;;;;22.46;48.90;95308.63;5003476;28;20581;-64
2022/07/21 00:42:59;;;;;;;5.88;3.08;;;;;;;22.44;48.88;95307.91;5003600;28;20295;-64
2022/07/21 00:45:26;;;;;;;2.53;2.30;;;;;;;22.20;49.69;95314.00;5004599;28;20716;-66
2022/07/21 00:47:53;;;;;;;3.97;3.38;;;;;;;21.33;53.01;95317.81;5003849;28;20203;-64
2022/07/21 00:50:21;;;;;;;3.40;3.10;;;;;;;20.54;55.77;95322.56;5005007;28;20288;-64
2022/07/21 00:52:50;;;;;;;3.65;3.25;;;;;;;20.27;56.62;95317.50;5005956;28;20328;-64
2022/07/21 00:55:21;;;;;;;4.97;4.25;;;;;;;20.38;56.02;95323.59;5004023;28;20202;-64
2022/07/21 00:57:48;;;;;;;5.72;3.05;;;;;;;19.98;57.48;95317.69;5005228;28;20266;-63
2022/07/21 01:00:19;;;;;;;4.45;3.20;;;;;;;19.72;58.35;95320.31;5003935;28;20494;-64
2022/07/21 01:02:45;;;;;;;3.08;2.85;;;;;;;19.53;59.24;95324.09;5005496;28;20567;-64
2022/07/21 01:05:14;;;;;;;4.85;3.17;;;;;;;19.32;60.00;95315.09;5004072;28;20230;-64
2022/07/21 01:07:42;;;;;;;3.78;2.88;;;;;;;19.24;60.18;95315.63;5005150;28;20260;-64
2022/07/21 01:10:12;;;;;;;7.55;3.65;;;;;;;19.29;60.02;95315.34;5004694;28;21066;-64
2022/07/21 01:12:39;;;;;;;6.82;3.22;;;;;;;19.23;60.54;95308.00;5004889;28;20207;-66
2022/07/21 01:15:07;;;;;;;3.63;3.17;;;;;;;19.25;60.20;95314.69;5003085;28;20260;-64
2022/07/21 01:17:35;;;;;;;3.40;3.03;;;;;;;19.22;60.86;95314.06;5005406;28;20215;-64
2022/07/21 01:20:05;;;;;;;3.25;2.88;;;;;;;19.13;60.83;95309.47;5005371;28;20203;-64
2022/07/21 01:22:35;;;;;;;5.22;2.88;;;;;;;19.24;60.04;95301.91;5005417;28;20202;-64
2022/07/21 01:25:02;;;;;;;3.88;3.05;;;;;;;19.23;60.33;95295.94;5005128;28;20744;-66
2022/07/21 01:27:30;;;;;;;4.97;2.90;;;;;;;19.66;58.76;95300.91;5005263;28;20203;-64
2022/07/21 01:29:57;;;;;;;3.22;3.03;;;;;;;20.12;57.58;95296.09;5005183;28;20265;-64
2022/07/21 01:32:25;;;;;;;4.95;3.58;;;;;;;20.18;57.57;95300.84;5005664;28;20635;-64
2022/07/21 01:34:52;;;;;;;3.75;3.10;;;;;;;20.31;56.88;95296.50;5004924;28;20235;-64
2022/07/21 01:37:22;;;;;;;3.70;3.50;;;;;;;20.51;56.35;95291.78;5006432;28;20269;-64
2022/07/21 01:42:35;;;;;;;3.17;2.95;;;;;;;20.67;55.51;95292.38;5003916;28;20213;-64
2022/07/21 01:45:02;;;;;;;5.32;3.47;;;;;;;20.56;55.85;95294.84;5003983;28;20289;-64
2022/07/21 01:47:28;;;;;;;3.50;2.80;;;;;;;20.42;55.99;95292.41;5004582;28;20203;-64
2022/07/21 01:49:55;;;;;;;5.18;3.28;;;;;;;20.30;56.02;95294.03;5003780;28;21354;-64
2022/07/21 01:52:22;;;;;;;7.63;3.00;;;;;;;20.25;55.70;95301.28;5008734;28;20245;-64
2022/07/21 01:54:50;;;;;;;3.17;2.85;;;;;;;20.35;55.50;95292.78;5007382;28;20786;-64
2022/07/21 01:57:17;;;;;;;3.45;2.78;;;;;;;20.21;56.01;95292.91;5007917;28;20207;-64
2022/07/21 01:59:44;;;;;;;4.32;2.60;;;;;;;19.88;57.33;95284.84;5008310;28;20208;-64
2022/07/21 02:02:11;;;;;;;2.70;2.50;;;;;;;19.65;58.04;95281.22;5008567;28;20211;-64
2022/07/21 02:04:38;;;;;;;3.17;2.88;;;;;;;19.53;58.79;95289.75;5007613;28;20660;-63
2022/07/21 02:07:05;;;;;;;3.10;2.90;;;;;;;19.40;59.38;95292.25;5009318;28;20241;-64
2022/07/21 02:09:32;;;;;;;3.63;3.30;;;;;;;19.94;58.23;95287.03;5007792;28;20241;-64
2022/07/21 02:12:00;;;;;;;3.03;2.83;;;;;;;20.03;57.31;95287.25;5008752;28;20233;-64
2022/07/21 02:14:27;;;;;;;3.22;2.97;;;;;;;20.26;56.72;95285.69;5007825;28;20215;-63
2022/07/21 02:16:53;;;;;;;2.90;2.60;;;;;;;20.36;56.24;95294.44;5008492;28;20207;-66
2022/07/21 02:19:20;;;;;;;3.00;2.78;;;;;;;20.54;55.31;95289.00;5008728;28;20339;-65
2022/07/21 02:21:47;;;;;;;3.78;2.97;;;;;;;20.55;54.96;95298.38;5007820;28;20235;-63
2022/07/21 02:24:14;;;;;;;4.47;2.90;;;;;;;20.14;56.33;95294.25;5006875;28;20203;-64
2022/07/21 02:26:41;;;;;;;3.22;3.03;;;;;;;20.24;56.21;95291.88;5004834;28;20269;-64
2022/07/21 02:29:09;;;;;;;3.10;2.80;;;;;;;20.26;55.85;95285.69;5008972;28;20699;-64
2022/07/21 02:31:36;;;;;;;3.00;2.80;;;;;;;20.17;55.56;95283.72;5005387;28;20203;-64
2022/07/21 02:34:02;;;;;;;2.58;2.47;;;;;;;20.14;55.19;95283.94;5008395;28;20238;-65
2022/07/21 02:36:29;;;;;;;4.82;2.78;;;;;;;20.07;54.91;95287.84;5008423;28;20215;-65
2022/07/21 02:38:56;;;;;;;2.40;2.30;;;;;;;19.97;55.83;95286.81;5007282;28;20211;-65
2022/07/21 02:41:23;;;;;;;3.03;2.65;;;;;;;20.08;55.34;95294.66;5006764;28;21790;-64
2022/07/21 02:43:49;;;;;;;2.67;2.47;;;;;;;19.88;55.59;95282.28;5008400;28;20265;-64
2022/07/21 02:46:18;;;;;;;2.90;2.75;;;;;;;19.86;55.90;95287.53;5008491;28;20680;-64
2022/07/21 02:48:44;;;;;;;5.32;2.95;;;;;;;19.94;55.05;95287.84;5007220;28;20203;-63
2022/07/21 02:51:11;;;;;;;3.35;2.83;;;;;;;20.08;54.98;95289.50;5007648;28;20203;-63
2022/07/21 02:53:38;;;;;;;9.95;2.85;;;;;;;20.29;54.20;95280.28;5007926;28;20725;-64
2022/07/21 02:56:05;;;;;;;2.35;2.22;;;;;;;20.15;55.35;95290.75;5006994;28;20736;-64
2022/07/21 02:58:32;;;;;;;3.35;2.55;;;;;;;19.96;56.14;95296.31;5008081;28;22007;-65
2022/07/21 03:01:01;;;;;;;6.32;2.72;;;;;;;20.07;55.92;95290.41;5006874;28;20225;-64
2022/07/21 03:03:31;;;;;;;3.15;2.95;;;;;;;20.17;55.94;95288.88;5008079;28;20329;-64
2022/07/21 03:05:59;;;;;;;4.45;2.67;;;;;;;20.36;55.53;95291.03;5008589;28;20234;-63
2022/07/21 03:08:27;;;;;;;3.83;2.53;;;;;;;20.66;54.57;95291.53;5007306;28;20235;-63
2022/07/21 03:10:54;;;;;;;11.35;3.50;;;;;;;20.85;54.19;95287.66;5006314;28;20211;-63
2022/07/21 03:13:21;;;;;;;3.00;2.78;;;;;;;20.91;53.55;95288.06;5006296;28;20218;-64
2022/07/21 03:15:48;;;;;;;3.40;3.20;;;;;;;20.86;53.69;95282.41;5006053;28;20224;-65
2022/07/21 03:18:15;;;;;;;5.97;2.63;;;;;;;20.70;53.90;95292.16;5005550;28;20582;-65
2022/07/21 03:20:44;;;;;;;3.40;2.92;;;;;;;20.63;54.06;95293.50;5006058;28;20203;-64
2022/07/21 03:23:11;;;;;;;3.75;3.55;;;;;;;20.59;54.03;95294.66;5005471;28;20749;-63
2022/07/21 03:25:38;;;;;;;4.15;2.97;;;;;;;20.87;53.72;95294.38;5008110;28;20199;-64
2022/07/21 03:28:05;;;;;;;5.30;2.55;;;;;;;21.11;52.75;95293.56;5007470;28;20642;-63
2022/07/21 03:30:32;;;;;;;4.00;2.58;;;;;;;20.94;52.93;95292.19;5006363;28;21030;-64
2022/07/21 03:32:59;;;;;;;9.38;3.03;;;;;;;20.81;53.46;95294.81;5004732;28;20207;-64
2022/07/21 03:35:25;;;;;;;5.88;3.22;;;;;;;21.24;52.66;95287.47;5007158;28;20281;-63
2022/07/21 03:37:56;;;;;;;4.88;3.58;;;;;;;22.19;50.14;95288.22;5005740;28;20203;-64
2022/07/21 03:40:25;;;;;;;3.65;2.88;;;;;;;23.19;47.49;95297.72;5004489;28;20207;-64
2022/07/21 03:42:52;;;;;;;5.55;2.50;;;;;;;24.20;44.61;95291.16;5007739;28;20264;-64
2022/07/21 03:45:19;;;;;;;2.35;2.25;;;;;;;25.23;42.86;95291.03;5006677;28;20271;-64
2022/07/21 03:47:45;;;;;;;7.03;3.22;;;;;;;25.87;41.31;95288.72;5006406;28;20214;-64
2022/07/21 03:50:13;;;;;;;2.90;2.33;;;;;;;26.26;39.95;95292.06;5005471;28;20206;-64
2022/07/21 03:52:40;;;;;;;3.38;2.10;;;;;;;25.99;40.08;95300.59;5008294;28;20232;-65
2022/07/21 03:55:09;;;;;;;2.53;2.40;;;;;;;25.57;40.58;95305.28;5005961;28;20332;-64
2022/07/21 03:57:37;;;;;;;2.17;2.08;;;;;;;25.03;41.51;95303.97;5007019;28;20211;-65
2022/07/21 04:00:08;;;;;;;3.30;3.00;;;;;;;24.86;42.44;95299.38;5004899;28;20217;-64
2022/07/21 04:02:35;;;;;;;5.93;2.95;;;;;;;24.61;42.67;95305.03;5007196;28;20203;-64
2022/07/21 04:05:01;;;;;;;2.60;2.35;;;;;;;24.35;43.57;95317.63;5006715;28;20219;-63
2022/07/21 04:07:28;;;;;;;7.22;2.97;;;;;;;24.50;43.00;95308.53;5007135;28;21380;-64
2022/07/21 04:09:55;;;;;;;5.68;2.80;;;;;;;24.65;43.29;95311.63;5004375;28;20281;-64
2022/07/21 04:12:27;;;;;;;7.32;3.03;;;;;;;24.79;42.55;95307.81;5005706;28;20228;-64
2022/07/21 04:14:54;;;;;;;3.72;3.13;;;;;;;25.03;42.37;95305.75;5028453;22;20257;-64
2022/07/21 04:17:21;;;;;;;3.92;3.28;;;;;;;24.85;42.95;95308.13;5006808;28;20218;-62
2022/07/21 04:19:48;;;;;;;3.40;3.10;;;;;;;24.72;43.34;95308.38;5004063;28;20210;-64
2022/07/21 04:22:15;;;;;;;2.90;2.70;;;;;;;24.68;43.10;95306.16;5004100;28;21506;-63
2022/07/21 04:24:42;;;;;;;2.47;2.28;;;;;;;24.72;42.74;95302.34;5007061;28;20215;-62
2022/07/21 04:27:09;;;;;;;3.88;3.15;;;;;;;24.56;43.08;95307.19;5004264;28;20292;-63
2022/07/21 04:29:37;;;;;;;7.32;2.28;;;;;;;24.61;43.08;95318.84;5004842;28;20214;-64
2022/07/21 04:32:04;;;;;;;5.00;2.60;;;;;;;24.65;42.74;95307.25;5006447;28;20297;-63
2022/07/21 04:34:31;;;;;;;4.82;2.70;;;;;;;24.56;43.18;95309.78;5005028;28;20262;-62
2022/07/21 04:36:58;;;;;;;4.72;3.65;;;;;;;24.64;42.92;95316.00;5005132;28;20604;-62
2022/07/21 04:39:25;;;;;;;2.50;2.40;;;;;;;24.61;42.89;95311.06;5005764;28;20648;-63
2022/07/21 04:41:51;;;;;;;2.88;2.65;;;;;;;24.70;42.88;95314.66;5005935;28;20562;-62
2022/07/21 04:44:18;;;;;;;7.90;3.22;;;;;;;24.83;42.47;95304.00;5005977;28;21668;-64
2022/07/21 04:46:46;;;;;;;3.90;3.20;;;;;;;24.95;42.47;95303.81;5005724;28;20629;-64
2022/07/21 04:49:13;;;;;;;18.13;11.82;;;;;;;25.05;41.72;95309.84;5005133;28;20738;-64
2022/07/21 04:51:40;;;;;;;5.95;3.33;;;;;;;25.08;41.84;95320.00;5006715;28;20283;-63
2022/07/21 04:54:07;;;;;;;6.57;5.60;;;;;;;24.98;42.36;95324.38;5006286;28;20314;-63
2022/07/21 04:56:34;;;;;;;7.68;3.70;;;;;;;24.85;42.59;95318.53;5006301;28;20294;-64
2022/07/21 04:59:01;;;;;;;11.82;3.58;;;;;;;24.85;42.29;95326.31;5005786;28;20207;-63
2022/07/21 05:01:28;;;;;;;7.35;3.63;;;;;;;25.06;41.81;95318.47;5005919;28;20233;-63
2022/07/21 05:03:56;;;;;;;4.38;3.00;;;;;;;25.18;41.66;95319.22;5005812;28;20202;-63
2022/07/21 05:06:23;;;;;;;18.55;13.55;;;;;;;25.13;41.24;95321.38;5006323;28;20223;-63
2022/07/21 05:08:50;;;;;;;11.02;8.65;;;;;;;25.19;41.03;95321.69;5004818;28;20206;-63
2022/07/21 05:11:16;;;;;;;5.53;4.13;;;;;;;25.20;41.19;95318.13;5004781;28;20233;-64
2022/07/21 05:13:43;;;;;;;4.38;2.88;;;;;;;25.38;40.72;95318.28;5006312;28;20288;-63
2022/07/21 05:16:10;;;;;;;4.53;2.97;;;;;;;25.46;40.96;95318.44;5006156;28;20257;-63
2022/07/21 05:18:37;;;;;;;4.05;3.70;;;;;;;25.84;39.97;95315.03;5004464;28;20207;-64
2022/07/21 05:21:05;;;;;;;5.65;3.40;;;;;;;26.39;39.37;95312.66;5006104;28;20792;-63
2022/07/21 05:23:32;;;;;;;6.47;3.42;;;;;;;27.49;37.17;95321.31;5005411;28;20211;-63
2022/07/21 05:25:59;;;;;;;94.35;58.30;;;;;;;28.95;34.97;95319.84;5006867;28;20284;-63
2022/07/21 05:28:28;;;;;;;12.77;7.13;;;;;;;30.26;32.42;95311.22;5009333;28;20332;-63
2022/07/21 05:30:55;;;;;;;5.88;4.32;;;;;;;32.11;29.79;95315.03;5009312;28;20210;-63
2022/07/21 05:33:21;;;;;;;7.78;4.43;;;;;;;33.89;27.53;95306.88;5009678;28;20198;-62
2022/07/21 05:35:49;;;;;;;4.55;4.15;;;;;;;35.69;24.85;95310.41;5009545;28;20260;-63
2022/07/21 05:38:17;;;;;;;4.40;3.75;;;;;;;36.37;24.32;95306.66;5008472;28;20202;-63
2022/07/21 05:40:44;;;;;;;10.27;4.32;;;;;;;36.20;24.92;95310.69;5008730;28;20619;-63
2022/07/21 05:43:10;;;;;;;5.68;5.18;;;;;;;37.79;22.92;95306.63;5009060;28;20962;-64
2022/07/21 05:45:37;;;;;;;5.70;5.13;;;;;;;38.81;21.41;95295.81;5008347;28;20207;-63
2022/07/21 05:48:04;;;;;;;4.82;4.10;;;;;;;39.45;20.60;95292.66;5008413;28;20214;-63
2022/07/21 05:50:31;;;;;;;4.55;4.05;;;;;;;39.03;20.99;95294.38;5009009;28;20993;-64
2022/07/21 05:52:58;;;;;;;6.15;5.75;;;;;;;39.77;20.41;95286.06;5009730;28;20212;-63
2022/07/21 05:55:26;;;;;;;5.32;4.90;;;;;;;39.68;20.32;95292.72;5008745;28;20231;-63
2022/07/21 05:57:53;;;;;;;6.63;4.28;;;;;;;39.09;21.13;95298.81;5007958;28;20261;-63
2022/07/21 06:00:19;;;;;;;8.35;4.35;;;;;;;39.41;20.58;95299.41;5009182;28;20207;-63
2022/07/21 06:02:47;;;;;;;9.25;4.03;;;;;;;38.58;21.56;95296.47;5009713;28;20578;-62
2022/07/21 06:05:14;;;;;;;8.00;4.50;;;;;;;39.26;21.03;95293.69;5008895;28;20223;-63
2022/07/21 06:07:41;;;;;;;7.32;4.82;;;;;;;38.89;21.40;95282.22;5008790;28;20601;-63
2022/07/21 06:10:09;;;;;;;7.85;5.13;;;;;;;38.75;21.39;95286.88;5009706;28;20731;-64
2022/07/21 06:12:37;;;;;;;11.60;5.20;;;;;;;38.63;21.47;95294.75;5009282;28;20207;-62
2022/07/21 06:15:04;;;;;;;9.00;7.97;;;;;;;38.20;22.07;95294.72;5010480;28;20910;-63
2022/07/21 06:17:34;;;;;;;10.57;5.07;;;;;;;38.40;21.78;95289.22;5008651;28;20253;-62
2022/07/21 06:20:00;;;;;;;5.75;5.20;;;;;;;38.82;21.32;95287.63;5007334;28;20214;-63
2022/07/21 06:22:27;;;;;;;10.55;5.13;;;;;;;38.88;21.42;95286.72;5009366;28;20230;-63
2022/07/21 06:24:54;;;;;;;6.97;4.10;;;;;;;38.77;21.62;95285.63;5009106;28;20210;-63
2022/07/21 06:27:21;;;;;;;7.20;4.18;;;;;;;38.30;22.05;95287.09;5007331;28;20207;-64
2022/07/21 06:29:49;;;;;;;7.35;3.80;;;;;;;38.07;22.48;95279.69;5008762;28;20332;-62
2022/07/21 06:32:15;;;;;;;4.57;4.05;;;;;;;38.03;22.45;95283.00;5009139;28;20199;-62
2022/07/21 06:34:42;;;;;;;4.65;4.20;;;;;;;38.00;22.13;95278.13;5007835;28;20207;-62
2022/07/21 06:37:09;;;;;;;4.30;3.50;;;;;;;36.70;23.93;95276.66;5008330;28;22588;-64
2022/07/21 06:39:39;;;;;;;3.78;3.50;;;;;;;36.07;24.52;95276.31;5004668;28;20207;-64
2022/07/21 06:42:07;;;;;;;10.30;4.63;;;;;;;36.33;24.27;95273.69;5007821;28;20219;-63
2022/07/21 06:44:34;;;;;;;7.95;3.95;;;;;;;36.13;24.30;95268.34;5008853;28;20275;-62
2022/07/21 06:47:04;;;;;;;6.95;4.93;;;;;;;36.07;25.35;95276.31;5008139;28;20656;-64
2022/07/21 06:49:31;;;;;;;9.55;4.30;;;;;;;35.71;25.44;95280.09;5006035;28;20222;-64
2022/07/21 06:51:58;;;;;;;8.80;4.07;;;;;;;35.52;25.57;95267.66;5008410;28;21103;-63
2022/07/21 06:54:24;;;;;;;6.40;3.83;;;;;;;35.20;25.82;95269.16;5007544;28;20669;-63
2022/07/21 06:56:51;;;;;;;6.25;4.35;;;;;;;34.49;26.21;95270.44;5007436;28;20230;-63
2022/07/21 06:59:18;;;;;;;6.47;3.97;;;;;;;34.43;26.63;95272.00;5007336;28;22307;-63
2022/07/21 07:01:45;;;;;;;4.30;3.92;;;;;;;34.35;27.32;95267.72;5008301;28;20203;-63
2022/07/21 07:04:13;;;;;;;8.32;3.88;;;;;;;34.24;26.99;95262.94;5008913;28;20207;-64
2022/07/21 07:06:40;;;;;;;4.05;3.70;;;;;;;33.95;27.91;95263.91;5008804;28;20199;-64
2022/07/21 07:09:07;;;;;;;9.77;3.65;;;;;;;33.99;27.85;95264.34;5006831;28;20215;-66
2022/07/21 07:11:34;;;;;;;8.30;4.50;;;;;;;33.86;27.98;95274.81;5008369;28;20207;-63
2022/07/21 07:14:00;;;;;;;6.80;4.55;;;;;;;33.52;28.41;95272.81;5007844;28;20214;-63
2022/07/21 07:16:27;;;;;;;5.50;3.63;;;;;;;33.29;28.89;95258.00;5007177;28;20239;-63
2022/07/21 07:18:54;;;;;;;16.65;3.80;;;;;;;32.85;29.96;95265.16;5008418;28;20240;-63
2022/07/21 07:21:22;;;;;;;3.78;3.38;;;;;;;32.72;29.64;95265.75;5007242;28;20219;-64
2022/07/21 07:23:49;;;;;;;6.20;3.17;;;;;;;32.48;30.14;95256.31;5007502;28;20233;-64
2022/07/21 07:26:16;;;;;;;4.97;3.80;;;;;;;32.16;30.58;95264.53;5008006;28;20203;-63
2022/07/21 07:28:43;;;;;;;5.90;3.40;;;;;;;31.86;31.04;95261.00;5007751;28;20527;-64
2022/07/21 07:31:09;;;;;;;13.25;6.03;;;;;;;31.69;31.31;95255.88;5005805;28;20211;-63
2022/07/21 07:33:36;;;;;;;6.90;4.20;;;;;;;31.60;31.64;95254.28;5008584;28;20198;-63
2022/07/21 07:36:05;;;;;;;4.80;4.18;;;;;;;31.66;31.70;95253.63;5008752;28;20233;-64
2022/07/21 07:38:33;;;;;;;9.15;4.65;;;;;;;31.39;31.79;95243.59;5006652;28;20693;-63
2022/07/21 07:41:00;;;;;;;8.25;3.42;;;;;;;31.16;32.12;95242.78;5006251;28;20253;-63
2022/07/21 07:43:26;;;;;;;9.68;3.95;;;;;;;31.50;31.97;95245.81;5007466;28;20211;-64
2022/07/21 07:45:53;;;;;;;4.20;3.42;;;;;;;31.67;31.63;95244.75;5006918;28;20214;-64
2022/07/21 07:48:20;;;;;;;5.25;2.72;;;;;;;31.78;31.67;95246.13;5005939;28;20207;-65
2022/07/21 07:50:47;;;;;;;5.63;3.15;;;;;;;31.92;31.55;95234.84;5005320;28;20268;-65
2022/07/21 07:53:14;;;;;;;6.20;3.13;;;;;;;31.86;31.24;95237.34;5006589;28;20272;-65
2022/07/21 07:55:42;;;;;;;6.10;2.85;;;;;;;31.84;31.75;95234.91;5007087;28;20851;-63
2022/07/21 07:58:09;;;;;;;3.25;2.95;;;;;;;31.79;31.77;95232.81;5006661;28;20207;-64
2022/07/21 08:00:37;;;;;;;5.75;2.90;;;;;;;31.60;32.67;95222.75;5006264;28;20289;-64
2022/07/21 08:03:04;;;;;;;3.90;2.83;;;;;;;31.49;32.53;95220.53;5007302;28;20207;-64
2022/07/21 08:05:31;;;;;;;8.00;3.40;;;;;;;31.47;32.54;95227.75;5007202;28;20312;-63
2022/07/21 08:07:58;;;;;;;3.35;2.75;;;;;;;31.29;32.47;95220.19;5007022;28;20269;-64
2022/07/21 08:10:25;;;;;;;9.20;2.92;;;;;;;31.13;33.38;95219.47;5005001;28;20207;-64
2022/07/21 08:12:53;;;;;;;3.15;2.95;;;;;;;31.34;34.01;95220.50;5006692;28;21226;-64
2022/07/21 08:15:20;;;;;;;4.25;2.70;;;;;;;31.64;32.22;95213.53;5006764;28;20235;-65
2022/07/21 08:17:46;;;;;;;5.05;3.15;;;;;;;31.75;32.18;95209.69;5006908;28;20207;-65
2022/07/21 08:20:13;;;;;;;3.40;3.20;;;;;;;31.77;31.86;95207.69;5004516;28;20374;-64
2022/07/21 08:22:40;;;;;;;6.68;3.15;;;;;;;31.59;31.66;95210.63;5006356;28;20891;-64
2022/07/21 08:25:07;;;;;;;6.18;2.80;;;;;;;31.68;32.12;95209.56;5006917;28;20207;-65
2022/07/21 08:27:34;;;;;;;3.15;2.42;;;;;;;31.70;31.78;95204.94;5004083;28;20207;-65
2022/07/21 08:30:03;;;;;;;3.60;2.42;;;;;;;31.61;31.85;95210.44;5005913;28;20297;-63
2022/07/21 08:32:29;;;;;;;3.42;2.72;;;;;;;31.65;31.69;95209.09;5006680;28;20657;-64
2022/07/21 08:34:56;;;;;;;3.58;3.20;;;;;;;31.62;31.84;95199.75;5006737;28;20214;-65
2022/07/21 08:37:23;;;;;;;4.70;3.40;;;;;;;31.74;32.06;95200.16;5005098;28;20227;-64
2022/07/21 08:39:50;;;;;;;5.03;2.63;;;;;;;31.65;31.50;95199.41;5005839;28;20669;-65
2022/07/21 08:42:17;;;;;;;3.10;2.78;;;;;;;31.44;31.57;95209.72;5006187;28;20747;-65
2022/07/21 08:44:44;;;;;;;2.63;2.53;;;;;;;31.34;31.67;95194.22;5006415;28;20998;-65
2022/07/21 08:47:12;;;;;;;3.47;2.83;;;;;;;31.21;31.70;95190.53;5004098;28;21975;-64
2022/07/21 08:49:40;;;;;;;5.82;2.72;;;;;;;31.24;31.67;95195.44;5000762;28;20214;-64
2022/07/21 08:52:07;;;;;;;3.42;2.75;;;;;;;31.31;31.10;95191.13;5005138;28;20235;-64
2022/07/21 08:54:34;;;;;;;3.25;2.53;;;;;;;31.62;31.25;95188.44;5005658;28;21656;-65
2022/07/21 08:57:01;;;;;;;4.22;2.75;;;;;;;31.90;31.03;95188.69;5003740;28;20658;-65
2022/07/21 08:59:28;;;;;;;4.43;4.03;;;;;;;31.90;30.89;95186.06;5004368;28;20202;-64
2022/07/21 09:01:54;;;;;;;7.03;6.40;;;;;;;31.96;31.07;95172.19;5005123;28;20337;-65
2022/07/21 09:04:26;;;;;;;7.88;3.45;;;;;;;31.92;30.59;95174.38;5003427;28;20644;-67
2022/07/21 09:06:57;;;;;;;3.20;3.00;;;;;;;31.94;31.24;95174.19;5004518;28;20885;-65
2022/07/21 09:09:25;;;;;;;5.18;3.30;;;;;;;32.12;31.12;95175.47;5003558;28;21559;-67
2022/07/21 09:11:54;;;;;;;7.10;3.22;;;;;;;32.28;31.04;95164.00;5004130;28;20203;-64
2022/07/21 09:14:22;;;;;;;3.97;3.53;;;;;;;32.35;31.11;95169.34;5004528;28;20203;-65
2022/07/21 09:16:51;;;;;;;3.35;3.15;;;;;;;32.40;30.96;95162.53;5004924;28;20308;-65
2022/07/21 09:19:21;;;;;;;20.80;18.60;;;;;;;32.28;30.58;95171.06;5004726;28;20207;-66
2022/07/21 09:21:52;;;;;;;32.63;27.95;;;;;;;32.12;30.94;95169.41;5006549;28;20261;-64
2022/07/21 09:24:25;;;;;;;12.25;11.10;;;;;;;32.13;30.40;95166.59;5005579;28;20207;-65
2022/07/21 09:27:14;;;;;;;14.77;13.45;;;;;;;32.18;30.54;95166.03;5005275;28;20207;-65
2022/07/21 09:29:46;;;;;;;27.02;24.10;;;;;;;31.89;30.56;95163.41;4997984;28;20338;-64
2022/07/21 09:32:18;;;;;;;35.45;26.95;;;;;;;31.95;29.86;95162.66;5002879;28;20211;-66
2022/07/21 09:34:46;;;;;;;3.55;3.35;;;;;;;31.73;29.31;95162.56;5004474;28;20259;-65
2022/07/21 09:37:14;;;;;;;10.70;9.35;;;;;;;31.63;30.19;95153.28;5004252;28;20234;-64
2022/07/21 09:39:42;;;;;;;10.35;6.45;;;;;;;31.84;30.31;95150.00;5003110;28;20211;-64
2022/07/21 09:42:18;;;;;;;7.15;6.18;;;;;;;31.98;29.59;95146.53;5002189;28;20280;-64
2022/07/21 09:44:47;;;;;;;6.13;4.38;;;;;;;31.93;29.81;95148.88;5004827;28;21959;-64
2022/07/21 09:47:15;;;;;;;4.55;4.15;;;;;;;32.03;30.00;95146.81;5003213;28;20280;-64
2022/07/21 09:49:43;;;;;;;9.13;3.75;;;;;;;32.04;29.43;95151.91;5004194;28;20195;-63
2022/07/21 09:52:29;;;;;;;9.00;3.63;;;;;;;32.15;29.78;95144.56;5005460;28;20199;-64
2022/07/21 09:54:58;;;;;;;3.63;3.40;;;;;;;32.28;29.18;95150.84;5005124;28;20202;-65
2022/07/21 09:57:25;;;;;;;6.55;3.00;;;;;;;32.20;29.52;95145.63;5004267;28;20855;-65
2022/07/21 09:59:52;;;;;;;4.05;3.22;;;;;;;32.12;29.71;95145.75;5004723;28;20294;-64
2022/07/21 10:02:21;;;;;;;3.65;2.85;;;;;;;32.29;29.46;95138.50;5004801;28;20199;-63
2022/07/21 10:04:55;;;;;;;4.78;3.03;;;;;;;32.30;29.74;95133.06;5004463;28;20235;-64
2022/07/21 10:07:24;;;;;;;7.72;2.92;;;;;;;32.36;28.65;95132.34;5005834;28;20749;-64
2022/07/21 10:09:52;;;;;;;3.53;3.25;;;;;;;32.42;29.07;95134.22;5004027;28;20601;-64
2022/07/21 10:12:19;;;;;;;6.07;5.75;;;;;;;32.54;28.32;95136.38;5005997;28;20598;-64
2022/07/21 10:14:47;;;;;;;4.50;4.20;;;;;;;32.65;27.69;95134.09;5008748;28;20239;-63
2022/07/21 10:17:14;;;;;;;5.93;3.17;;;;;;;32.49;27.67;95134.31;5008866;28;20365;-63
2022/07/21 10:19:50;;;;;;;5.15;3.30;;;;;;;32.46;28.56;95127.59;5006876;28;20207;-64
2022/07/21 10:22:25;;;;;;;5.20;3.40;;;;;;;32.50;28.35;95124.59;5007546;28;20982;-64
2022/07/21 10:24:54;;;;;;;2.97;2.78;;;;;;;32.49;28.25;95123.78;5008192;28;20207;-71
2022/07/21 10:27:21;;;;;;;2.60;2.50;;;;;;;32.35;28.43;95130.72;5009217;28;20284;-68
2022/07/21 10:30:00;;;;;;;7.50;2.40;;;;;;;32.30;28.88;95125.16;5007356;28;20316;-69
2022/07/21 10:32:30;;;;;;;3.45;3.25;;;;;;;32.30;29.00;95127.81;5009055;28;20202;-68
2022/07/21 10:34:59;;;;;;;6.40;2.65;;;;;;;32.31;28.86;95123.34;5008894;28;20261;-69
2022/07/21 10:37:48;;;;;;;2.78;2.17;;;;;;;32.52;28.82;95125.22;5008786;28;20230;-68
2022/07/21 10:40:41;;;;;;;3.08;2.78;;;;;;;32.46;29.45;95113.63;5008240;28;21574;-68
2022/07/21 10:43:40;;;;;;;4.50;2.95;;;;;;;32.80;28.89;95118.28;4998325;28;20606;-69
2022/07/21 10:46:33;;;;;;;4.78;3.55;;;;;;;32.83;28.86;95115.28;5007893;28;20230;-68
2022/07/21 10:49:00;;;;;;;3.33;3.03;;;;;;;32.81;28.01;95106.75;5007654;28;20327;-69
2022/07/21 10:51:27;;;;;;;3.80;3.08;;;;;;;32.54;28.69;95105.63;5007060;28;20810;-69
2022/07/21 10:54:25;;;;;;;2.80;2.58;;;;;;;32.53;28.99;95105.81;5008036;28;20228;-69
2022/07/21 10:57:29;;;;;;;2.95;2.70;;;;;;;32.59;28.76;95102.44;5007431;28;20261;-69
2022/07/21 11:00:25;;;;;;;3.28;2.67;;;;;;;32.44;28.40;95090.13;5007349;28;20276;-69
2022/07/21 11:02:55;;;;;;;5.47;3.17;;;;;;;32.57;28.92;95096.56;5008842;28;20206;-69
2022/07/21 11:05:22;;;;;;;2.78;2.67;;;;;;;32.62;28.77;95092.38;5004334;28;20425;-70
2022/07/21 11:08:17;;;;;;;3.22;2.70;;;;;;;32.56;28.45;95084.41;5008622;28;20257;-69
2022/07/21 11:10:47;;;;;;;3.95;3.55;;;;;;;32.57;28.45;95088.66;5007546;28;20218;-70
2022/07/21 11:13:17;;;;;;;3.67;2.80;;;;;;;32.63;27.70;95077.41;5007140;28;20281;-69
2022/07/21 11:15:54;;;;;;;3.85;2.90;;;;;;;32.79;28.36;95072.72;5007935;28;20329;-70
2022/07/21 11:18:22;;;;;;;3.20;2.92;;;;;;;32.97;27.95;95080.19;5006294;28;20732;-69
2022/07/21 11:21:11;;;;;;;10.35;9.40;;;;;;;32.92;28.07;95071.22;5007054;28;20207;-69
2022/07/21 11:23:41;;;;;;;37.90;29.92;;;;;;;32.89;28.45;95080.31;5004558;28;20273;-70
2022/07/21 11:26:09;;;;;;;14.55;13.18;;;;;;;32.75;27.97;95084.63;5008204;28;20199;-69
2022/07/21 11:28:38;;;;;;;5.72;5.32;;;;;;;32.79;27.71;95069.28;5006885;28;20203;-69
2022/07/21 11:31:15;;;;;;;25.35;22.80;;;;;;;32.86;27.94;95072.81;5007521;28;20217;-69
2022/07/21 11:33:44;;;;;;;11.15;7.63;;;;;;;32.76;28.58;95073.09;5008360;28;20206;-70
2022/07/21 11:36:11;;;;;;;8.75;7.28;;;;;;;32.65;27.89;95076.22;5007810;28;20475;-69
2022/07/21 11:38:37;;;;;;;9.40;6.07;;;;;;;32.75;28.23;95073.28;5007088;28;20292;-70
2022/07/21 11:41:15;;;;;;;6.53;4.47;;;;;;;32.80;27.97;95076.19;5005635;28;20202;-69